Time;durP1;ratioP1;P1;durP2;ratioP2;P2;SDS_P1;SDS_P2;PMS_P1;PMS_P2;Temp;Humidity;BMP_temperature;BMP_pressure;BME280_temperature;BME280_humidity;BME280_pressure;Samples;Min_cycle;Max_cycle;Signal;HPM_P1;HPM_P2
2024/03/14 00:01:22;;;;;;;32.63;12.77;;;;;;;10.57;100.00;101167.31;6160056;28;20055;-76
2024/03/14 00:04:24;;;;;;;32.22;13.05;;;;;;;10.57;100.00;101174.38;6160353;28;20605;-76
2024/03/14 00:07:26;;;;;;;33.50;13.10;;;;;;;10.57;100.00;101169.94;6160339;28;20070;-78
2024/03/14 00:10:27;;;;;;;31.92;14.02;;;;;;;10.57;100.00;101174.38;6160313;28;20129;-77
2024/03/14 00:13:29;;;;;;;37.67;13.85;;;;;;;10.56;100.00;101170.03;6160349;28;20051;-77
2024/03/14 00:16:31;;;;;;;30.27;13.55;;;;;;;10.55;100.00;101174.44;6160003;28;20097;-77
2024/03/14 00:19:33;;;;;;;30.08;13.10;;;;;;;10.57;100.00;101177.84;6159892;28;20051;-77
2024/03/14 00:22:35;;;;;;;29.98;12.82;;;;;;;10.58;100.00;101176.06;6160542;28;20047;-77
2024/03/14 00:25:36;;;;;;;32.75;12.65;;;;;;;10.53;100.00;101173.66;6160056;28;20050;-77
2024/03/14 00:28:39;;;;;;;25.92;11.32;;;;;;;10.63;100.00;101169.69;6160414;28;20047;-77
2024/03/14 00:31:40;;;;;;;32.25;13.40;;;;;;;10.71;100.00;101166.69;6159887;28;20082;-77
2024/03/14 00:34:42;;;;;;;28.15;11.32;;;;;;;10.77;100.00;101168.19;6159627;28;20046;-77
2024/03/14 00:37:44;;;;;;;28.60;12.52;;;;;;;10.74;100.00;101163.91;6160300;28;20054;-77
2024/03/14 00:40:46;;;;;;;27.15;11.75;;;;;;;10.77;100.00;101162.94;6159672;28;20055;-78
2024/03/14 00:43:47;;;;;;;23.58;11.85;;;;;;;10.77;100.00;101165.56;6160132;28;20051;-78
2024/03/14 00:46:50;;;;;;;28.60;12.20;;;;;;;10.75;100.00;101165.63;6159944;28;20129;-78
2024/03/14 00:49:52;;;;;;;30.52;12.35;;;;;;;10.72;100.00;101160.53;6160298;28;20097;-77
2024/03/14 00:52:53;;;;;;;27.58;11.88;;;;;;;10.77;100.00;101157.69;6164390;28;20066;-77
2024/03/14 00:55:55;;;;;;;25.70;10.82;;;;;;;10.85;100.00;101155.50;6164144;28;20058;-77
2024/03/14 00:58:56;;;;;;;27.13;11.23;;;;;;;10.87;100.00;101157.16;6163612;28;20455;-77
2024/03/14 01:01:58;;;;;;;32.40;12.43;;;;;;;10.83;100.00;101154.75;6164166;28;20055;-77
2024/03/14 01:05:02;;;;;;;24.90;10.45;;;;;;;10.82;100.00;101156.53;6163729;28;20055;-77
2024/03/14 01:08:04;;;;;;;28.23;11.85;;;;;;;10.82;100.00;101150.41;6164628;28;20633;-77
2024/03/14 01:11:06;;;;;;;25.98;11.18;;;;;;;10.81;100.00;101151.31;6163924;28;20432;-77
2024/03/14 01:14:07;;;;;;;27.77;11.60;;;;;;;10.83;100.00;101154.75;6164290;28;20057;-77
2024/03/14 01:17:09;;;;;;;22.98;11.57;;;;;;;10.68;100.00;101152.84;6163615;28;20053;-78
2024/03/14 01:20:10;;;;;;;27.35;11.38;;;;;;;10.64;100.00;101147.72;6169677;28;20046;-78
2024/03/14 01:23:12;;;;;;;25.83;11.18;;;;;;;10.62;100.00;101146.94;6187908;28;20180;-78
2024/03/14 01:26:13;;;;;;;29.92;11.48;;;;;;;10.76;100.00;101143.66;6187656;28;20057;-77
2024/03/14 01:29:16;;;;;;;28.00;10.98;;;;;;;10.72;100.00;101149.13;6187256;28;20062;-77
2024/03/14 01:32:17;;;;;;;25.98;11.65;;;;;;;10.67;100.00;101149.34;6187764;28;20425;-77
2024/03/14 01:35:19;;;;;;;25.77;12.10;;;;;;;10.59;100.00;101141.84;6187370;28;20050;-77
2024/03/14 01:38:20;;;;;;;26.08;11.95;;;;;;;10.60;100.00;101138.28;6187307;28;20053;-77
2024/03/14 01:41:22;;;;;;;29.30;12.07;;;;;;;10.64;100.00;101137.22;6186949;28;20057;-77
2024/03/14 01:44:23;;;;;;;30.25;12.95;;;;;;;10.57;100.00;101134.94;6186937;28;20057;-77
2024/03/14 01:47:25;;;;;;;27.45;11.90;;;;;;;10.61;100.00;101129.47;6187159;28;20057;-77
2024/03/14 01:50:26;;;;;;;26.20;11.60;;;;;;;10.63;100.00;101126.78;6186749;28;20481;-77
2024/03/14 01:53:28;;;;;;;26.95;11.90;;;;;;;10.57;100.00;101120.03;6187160;28;20501;-77
2024/03/14 01:56:31;;;;;;;29.48;11.65;;;;;;;10.58;100.00;101121.75;6186802;28;20057;-77
2024/03/14 01:59:32;;;;;;;32.33;12.35;;;;;;;10.58;100.00;101111.25;6186565;28;20340;-78
2024/03/14 02:02:35;;;;;;;22.90;10.57;;;;;;;10.71;100.00;101116.75;6181407;28;20450;-77
2024/03/14 02:05:37;;;;;;;23.23;11.43;;;;;;;10.55;100.00;101110.53;6162366;28;20046;-78
2024/03/14 02:08:39;;;;;;;26.23;12.07;;;;;;;10.57;100.00;101100.78;6162966;28;20098;-78
2024/03/14 02:11:40;;;;;;;27.77;11.57;;;;;;;10.47;100.00;101100.38;6161968;28;20133;-78
2024/03/14 02:14:42;;;;;;;22.35;10.57;;;;;;;10.45;100.00;101101.38;6162441;28;20057;-77
2024/03/14 02:17:44;;;;;;;23.98;11.63;;;;;;;10.47;100.00;101107.41;6162640;28;20056;-77
2024/03/14 02:20:46;;;;;;;23.58;11.50;;;;;;;10.50;100.00;101099.38;6161608;28;20425;-77
2024/03/14 02:23:48;;;;;;;27.90;11.18;;;;;;;10.47;100.00;101091.63;6162463;28;20073;-78
2024/03/14 02:26:50;;;;;;;23.10;11.02;;;;;;;10.53;100.00;101088.72;6161998;28;20053;-77
2024/03/14 02:29:52;;;;;;;22.48;10.68;;;;;;;10.50;100.00;101084.47;6162017;28;20182;-77
2024/03/14 02:32:53;;;;;;;22.83;10.48;;;;;;;10.50;100.00;101086.25;6162121;28;20062;-77
2024/03/14 02:35:55;;;;;;;23.33;10.60;;;;;;;10.58;100.00;101084.97;6161901;28;20054;-77
2024/03/14 02:38:56;;;;;;;28.48;11.05;;;;;;;10.59;100.00;101080.56;6161387;28;20054;-76
2024/03/14 02:41:59;;;;;;;20.30;9.85;;;;;;;10.60;100.00;101082.25;6162126;28;20054;-78
2024/03/14 02:45:01;;;;;;;22.80;9.90;;;;;;;10.57;100.00;101079.75;6161634;28;20054;-78
2024/03/14 02:48:04;;;;;;;24.48;10.00;;;;;;;10.60;100.00;101077.84;6162004;28;20043;-77
2024/03/14 02:51:05;;;;;;;18.98;10.05;;;;;;;10.63;100.00;101077.69;6161612;28;20098;-77
2024/03/14 02:54:07;;;;;;;20.80;9.68;;;;;;;10.66;100.00;101076.69;6161620;28;20439;-77
2024/03/14 02:57:08;;;;;;;21.63;9.73;;;;;;;10.69;100.00;101073.91;6161434;28;20047;-77
2024/03/14 03:00:16;;;;;;;22.23;10.18;;;;;;;10.71;100.00;101072.06;6160962;28;20047;-77
2024/03/14 03:03:17;;;;;;;19.20;8.90;;;;;;;10.70;100.00;101075.63;6162441;28;20117;-77
2024/03/14 03:06:19;;;;;;;18.58;10.23;;;;;;;10.66;100.00;101074.91;6161000;28;20363;-77
2024/03/14 03:09:22;;;;;;;19.33;8.60;;;;;;;10.70;100.00;101077.41;6160864;28;20367;-77
2024/03/14 03:12:23;;;;;;;21.23;10.48;;;;;;;10.70;100.00;101067.72;6160750;28;20137;-78
2024/03/14 03:15:24;;;;;;;16.42;8.07;;;;;;;10.73;100.00;101066.75;6160950;28;20074;-77
2024/03/14 03:18:26;;;;;;;20.23;8.52;;;;;;;10.67;100.00;101062.59;6159294;28;20058;-77
2024/03/14 03:21:28;;;;;;;21.13;9.93;;;;;;;10.61;100.00;101057.66;6158751;28;20046;-77
2024/03/14 03:24:30;;;;;;;20.35;8.63;;;;;;;10.61;100.00;101062.91;6159991;28;20051;-77
2024/03/14 03:27:32;;;;;;;17.73;8.45;;;;;;;10.64;100.00;101062.78;6160018;28;20332;-77
2024/03/14 03:30:34;;;;;;;18.70;9.07;;;;;;;10.63;100.00;101063.72;6160401;28;20082;-77
2024/03/14 03:33:35;;;;;;;19.80;8.68;;;;;;;10.62;100.00;101064.59;6159543;28;20486;-77
2024/03/14 03:36:36;;;;;;;18.65;8.90;;;;;;;10.61;100.00;101060.28;6154165;28;20054;-77
2024/03/14 03:39:39;;;;;;;17.27;7.93;;;;;;;10.65;100.00;101059.22;6149682;28;21416;-77
2024/03/14 03:42:41;;;;;;;22.25;9.18;;;;;;;10.63;100.00;101064.56;6167479;28;20054;-78
2024/03/14 03:45:42;;;;;;;18.02;8.75;;;;;;;10.64;100.00;101057.53;6151493;28;20050;-77
2024/03/14 03:48:44;;;;;;;17.10;8.25;;;;;;;10.64;100.00;101049.63;6151445;28;20047;-77
2024/03/14 03:51:46;;;;;;;17.85;8.18;;;;;;;10.60;100.00;101045.44;6146419;28;20651;-77
2024/03/14 03:54:46;;;;;;;19.75;8.82;;;;;;;10.56;100.00;101042.13;6136693;29;20055;-77
2024/03/14 03:57:48;;;;;;;18.33;8.98;;;;;;;10.58;100.00;101045.53;6136653;29;20050;-77
2024/03/14 04:00:52;;;;;;;16.23;9.02;;;;;;;10.59;100.00;101043.75;6136174;29;20055;-77
2024/03/14 04:03:54;;;;;;;19.77;9.75;;;;;;;10.60;100.00;101040.19;6158304;28;20059;-76
2024/03/14 04:06:56;;;;;;;18.20;8.70;;;;;;;10.59;100.00;101051.63;6159857;28;20348;-77
2024/03/14 04:09:57;;;;;;;15.95;9.05;;;;;;;10.56;100.00;101036.84;6160106;28;20331;-76
2024/03/14 04:13:00;;;;;;;15.73;8.60;;;;;;;10.55;100.00;101036.94;6160482;28;20329;-78
2024/03/14 04:16:03;;;;;;;22.80;9.95;;;;;;;10.51;100.00;101038.00;6160507;28;20145;-78
2024/03/14 04:19:06;;;;;;;14.30;8.15;;;;;;;10.51;100.00;101032.75;6159237;28;20051;-78
2024/03/14 04:22:07;;;;;;;17.42;8.50;;;;;;;10.58;100.00;101031.53;6160509;28;20066;-77
2024/03/14 04:25:14;;;;;;;15.65;8.40;;;;;;;10.59;100.00;101031.47;6162521;28;20061;-77
2024/03/14 04:28:18;;;;;;;19.25;8.18;;;;;;;10.58;100.00;101031.53;6165830;28;20078;-77
2024/03/14 04:31:20;;;;;;;15.57;7.95;;;;;;;10.58;100.00;101023.63;6165111;28;20058;-77
2024/03/14 04:34:23;;;;;;;16.83;7.95;;;;;;;10.61;100.00;101034.84;6164481;28;20054;-77
2024/03/14 04:37:25;;;;;;;18.85;8.32;;;;;;;10.59;100.00;101030.63;6165028;28;20054;-77
2024/03/14 04:40:27;;;;;;;16.50;8.38;;;;;;;10.70;100.00;101032.72;6164155;28;20082;-78
2024/03/14 04:43:29;;;;;;;21.00;8.88;;;;;;;10.68;100.00;101034.56;6177002;28;20148;-77
2024/03/14 04:46:31;;;;;;;14.55;7.55;;;;;;;10.68;100.00;101037.19;6188210;28;20047;-77
2024/03/14 04:49:33;;;;;;;15.02;7.97;;;;;;;10.71;100.00;101023.88;6188450;28;20061;-77
2024/03/14 04:52:34;;;;;;;17.38;9.05;;;;;;;10.64;100.00;101031.25;6188439;28;20046;-77
2024/03/14 04:55:36;;;;;;;17.08;8.48;;;;;;;10.60;100.00;101030.53;6188159;28;20058;-78
2024/03/14 04:58:38;;;;;;;15.57;8.00;;;;;;;10.58;100.00;101037.66;6188111;28;20546;-77
2024/03/14 05:01:40;;;;;;;15.38;7.60;;;;;;;10.65;100.00;101041.66;6188049;28;20109;-78
2024/03/14 05:04:42;;;;;;;18.77;8.60;;;;;;;10.66;100.00;101037.25;6187913;28;20136;-78
2024/03/14 05:07:43;;;;;;;16.50;8.50;;;;;;;10.69;100.00;101034.50;6188281;28;20050;-78
2024/03/14 05:10:45;;;;;;;18.63;8.52;;;;;;;10.65;100.00;101039.03;6187556;28;20100;-78
2024/03/14 05:13:56;;;;;;;16.80;7.68;;;;;;;10.63;100.00;101034.81;6187794;28;20066;-78
2024/03/14 05:16:57;;;;;;;16.27;8.75;;;;;;;10.65;100.00;101028.53;6161798;28;20392;-78
2024/03/14 05:19:59;;;;;;;13.43;8.00;;;;;;;10.58;100.00;101042.91;6162770;28;20053;-78
2024/03/14 05:23:00;;;;;;;15.82;8.65;;;;;;;10.61;100.00;101041.91;6163456;28;20061;-77
2024/03/14 05:26:02;;;;;;;16.48;8.18;;;;;;;10.55;100.00;101042.19;6163053;28;20458;-77
2024/03/14 05:29:04;;;;;;;16.67;8.07;;;;;;;10.55;100.00;101036.94;6162947;28;20078;-78
2024/03/14 05:32:05;;;;;;;15.48;8.25;;;;;;;10.59;100.00;101046.38;6162660;28;20371;-78
2024/03/14 05:35:07;;;;;;;15.55;7.60;;;;;;;10.60;100.00;101042.81;6154659;28;20051;-77
2024/03/14 05:38:08;;;;;;;14.30;7.63;;;;;;;10.59;100.00;101044.59;6138536;29;20051;-77
2024/03/14 05:41:10;;;;;;;13.40;7.57;;;;;;;10.65;100.00;101043.44;6139003;29;20047;-78
2024/03/14 05:44:11;;;;;;;16.00;8.75;;;;;;;10.65;100.00;101040.81;6138846;28;20459;-76
2024/03/14 05:47:13;;;;;;;16.65;8.02;;;;;;;10.68;100.00;101045.94;6138802;29;20051;-77
2024/03/14 05:50:15;;;;;;;12.93;7.82;;;;;;;10.66;100.00;101046.00;6138490;29;20125;-78
2024/03/14 05:53:17;;;;;;;13.40;8.07;;;;;;;10.75;100.00;101038.59;6139168;29;20055;-78
2024/03/14 05:56:18;;;;;;;16.40;8.00;;;;;;;10.73;100.00;101033.41;6138812;29;20055;-78
2024/03/14 05:59:20;;;;;;;13.38;7.20;;;;;;;10.67;100.00;101038.94;6138594;29;20053;-78
2024/03/14 06:02:22;;;;;;;19.00;7.85;;;;;;;10.65;100.00;101048.69;6139031;29;20511;-78
2024/03/14 06:05:24;;;;;;;12.77;7.00;;;;;;;10.69;100.00;101044.16;6138421;29;20396;-78
2024/03/14 06:08:27;;;;;;;16.27;8.30;;;;;;;10.65;100.00;101035.56;6138833;29;20070;-77
2024/03/14 06:11:29;;;;;;;15.77;7.63;;;;;;;10.69;100.00;101031.00;6138299;29;20051;-78
2024/03/14 06:14:32;;;;;;;16.02;8.15;;;;;;;10.69;100.00;101036.28;6138549;29;20435;-78
2024/03/14 06:17:34;;;;;;;16.77;8.02;;;;;;;10.74;100.00;101040.38;6138519;29;20051;-76
2024/03/14 06:20:35;;;;;;;17.40;9.15;;;;;;;10.73;100.00;101040.44;6139309;28;20490;-77
2024/03/14 06:23:37;;;;;;;15.15;8.23;;;;;;;10.79;100.00;101046.25;6159992;28;20069;-77
2024/03/14 06:26:39;;;;;;;16.10;8.02;;;;;;;10.78;100.00;101043.69;6161536;28;20058;-78
2024/03/14 06:29:41;;;;;;;16.88;8.35;;;;;;;10.82;100.00;101047.88;6161695;28;20350;-77
2024/03/14 06:32:44;;;;;;;16.75;8.73;;;;;;;10.89;100.00;101047.47;6161927;28;20325;-76
2024/03/14 06:35:47;;;;;;;16.25;7.82;;;;;;;10.87;100.00;101051.97;6162284;28;20051;-78
2024/03/14 06:38:49;;;;;;;16.08;8.50;;;;;;;10.89;100.00;101049.25;6161764;28;20428;-79
2024/03/14 06:41:50;;;;;;;19.00;8.65;;;;;;;10.81;100.00;101054.03;6161243;28;20065;-78
2024/03/14 06:44:52;;;;;;;17.73;8.48;;;;;;;11.11;100.00;101047.25;6161249;28;20133;-78
2024/03/14 06:47:54;;;;;;;15.02;8.52;;;;;;;11.21;100.00;101050.28;6160542;28;20039;-78
2024/03/14 06:50:56;;;;;;;18.15;8.85;;;;;;;11.27;100.00;101043.88;6161203;28;20054;-79
2024/03/14 06:53:57;;;;;;;19.70;8.60;;;;;;;11.30;100.00;101048.94;6161729;28;20062;-78
2024/03/14 06:57:00;;;;;;;22.13;8.65;;;;;;;11.33;100.00;101054.91;6161436;28;20458;-78
2024/03/14 07:00:11;;;;;;;17.80;8.77;;;;;;;11.44;100.00;101054.34;6160933;28;20106;-77
2024/03/14 07:03:13;;;;;;;17.20;8.88;;;;;;;11.40;100.00;101051.06;6162965;28;20051;-77
2024/03/14 07:06:15;;;;;;;20.15;8.68;;;;;;;11.27;100.00;101059.66;6161024;28;20051;-77
2024/03/14 07:09:18;;;;;;;18.40;8.93;;;;;;;11.31;100.00;101059.41;6160489;28;20051;-78
2024/03/14 07:12:21;;;;;;;18.15;8.60;;;;;;;11.27;100.00;101063.13;6147778;28;20101;-77
2024/03/14 07:15:22;;;;;;;18.88;9.43;;;;;;;11.40;100.00;101069.47;6157076;28;20047;-77
2024/03/14 07:18:24;;;;;;;18.08;8.68;;;;;;;11.36;100.00;101060.03;6157035;28;20054;-77
2024/03/14 07:21:25;;;;;;;18.98;9.63;;;;;;;11.36;100.00;101072.34;6155921;28;20050;-78
2024/03/14 07:24:27;;;;;;;21.08;9.43;;;;;;;11.36;100.00;101069.72;6154534;28;20053;-79
2024/03/14 07:27:29;;;;;;;17.25;9.10;;;;;;;11.42;100.00;101069.38;6161076;28;20351;-77
2024/03/14 07:30:34;;;;;;;16.42;9.25;;;;;;;11.44;100.00;101070.13;6160333;28;20050;-77
2024/03/14 07:33:36;;;;;;;18.00;9.52;;;;;;;11.50;100.00;101066.34;6161644;28;20493;-78
2024/03/14 07:36:38;;;;;;;17.10;8.45;;;;;;;11.54;100.00;101062.63;6159718;28;20059;-78
2024/03/14 07:39:40;;;;;;;17.85;9.23;;;;;;;11.62;100.00;101063.06;6160092;28;20046;-78
2024/03/14 07:42:43;;;;;;;20.40;9.57;;;;;;;11.67;100.00;101072.44;6160680;28;20130;-78
2024/03/14 07:45:46;;;;;;;18.52;9.27;;;;;;;11.72;100.00;101077.47;6160284;28;20054;-77
2024/03/14 07:48:49;;;;;;;22.23;8.85;;;;;;;11.85;100.00;101075.88;6160542;28;20438;-78
2024/03/14 07:51:50;;;;;;;20.02;9.40;;;;;;;11.79;100.00;101070.09;6171543;28;20049;-77
2024/03/14 07:54:53;;;;;;;16.55;8.10;;;;;;;11.92;100.00;101077.28;6160188;28;20355;-77
2024/03/14 07:57:54;;;;;;;17.73;8.80;;;;;;;11.92;100.00;101085.19;6160606;28;20055;-78
2024/03/14 08:00:56;;;;;;;16.40;8.25;;;;;;;11.87;100.00;101075.81;6164285;28;20047;-77
2024/03/14 08:04:00;;;;;;;19.42;9.07;;;;;;;11.90;100.00;101083.56;6165434;28;20189;-77
2024/03/14 08:07:10;;;;;;;18.33;9.27;;;;;;;11.85;100.00;101078.53;6158447;28;20173;-78
2024/03/14 08:10:11;;;;;;;18.08;9.82;;;;;;;11.92;100.00;101092.22;6159957;28;20112;-77
2024/03/14 08:13:17;;;;;;;15.73;8.48;;;;;;;11.98;100.00;101094.53;6162755;28;20444;-76
2024/03/14 08:16:19;;;;;;;16.23;8.73;;;;;;;11.95;100.00;101083.31;6163622;28;20077;-76
2024/03/14 08:19:21;;;;;;;15.82;8.50;;;;;;;11.95;100.00;101086.81;6180643;28;20073;-76
2024/03/14 08:22:23;;;;;;;16.50;8.73;;;;;;;12.02;100.00;101082.03;6165166;28;20094;-76
2024/03/14 08:25:25;;;;;;;19.38;9.50;;;;;;;12.05;100.00;101092.44;6164577;28;20062;-76
2024/03/14 08:28:26;;;;;;;17.98;8.15;;;;;;;12.11;100.00;101089.44;6181084;28;20057;-76
2024/03/14 08:31:28;;;;;;;18.25;9.88;;;;;;;12.13;100.00;101090.25;6180372;28;20094;-77
2024/03/14 08:34:29;;;;;;;17.02;8.30;;;;;;;12.05;100.00;101090.66;6180592;28;20455;-76
2024/03/14 08:37:31;;;;;;;15.95;8.50;;;;;;;12.05;100.00;101090.66;6179860;28;20054;-76
2024/03/14 08:40:33;;;;;;;14.80;8.57;;;;;;;12.01;100.00;101089.09;6163926;28;20359;-77
2024/03/14 08:43:35;;;;;;;19.00;9.23;;;;;;;12.00;100.00;101082.13;6164452;28;20355;-77
2024/03/14 08:46:36;;;;;;;16.20;8.73;;;;;;;12.09;100.00;101091.34;6179914;28;20046;-77
2024/03/14 08:49:38;;;;;;;17.00;7.32;;;;;;;12.24;100.00;101089.66;6163810;28;20055;-77
2024/03/14 08:52:39;;;;;;;20.75;8.40;;;;;;;12.28;100.00;101080.63;6163761;28;20050;-77
2024/03/14 08:55:50;;;;;;;15.30;8.10;;;;;;;12.29;100.00;101074.44;6163768;28;20364;-77
2024/03/14 08:58:56;;;;;;;15.65;8.07;;;;;;;12.36;100.00;101081.91;6165398;28;20058;-76
2024/03/14 09:01:58;;;;;;;13.45;8.35;;;;;;;12.48;100.00;101074.25;6164720;28;20082;-75
2024/03/14 09:05:00;;;;;;;16.85;7.75;;;;;;;12.61;100.00;101064.72;6163597;28;20050;-77
2024/03/14 09:08:01;;;;;;;14.63;7.05;;;;;;;12.78;100.00;101069.03;6164153;28;20064;-77
2024/03/14 09:11:03;;;;;;;19.27;8.65;;;;;;;12.90;100.00;101063.91;6162331;28;20058;-77
2024/03/14 09:14:05;;;;;;;14.75;7.50;;;;;;;13.07;100.00;101056.78;6164027;28;20051;-76
2024/03/14 09:17:07;;;;;;;15.48;6.95;;;;;;;13.28;100.00;101066.09;6163311;28;20055;-76
2024/03/14 09:20:14;;;;;;;12.85;6.82;;;;;;;13.28;100.00;101062.63;6163399;28;20050;-77
2024/03/14 09:23:19;;;;;;;10.50;5.97;;;;;;;13.30;100.00;101058.94;6164504;28;20463;-76
2024/03/14 09:26:21;;;;;;;13.93;6.90;;;;;;;13.33;100.00;101064.03;6163884;28;20389;-77
2024/03/14 09:29:23;;;;;;;14.13;6.20;;;;;;;13.39;100.00;101066.31;6163146;28;20053;-76
2024/03/14 09:32:25;;;;;;;11.25;6.38;;;;;;;13.41;100.00;101064.44;6163730;28;20054;-77
2024/03/14 09:35:27;;;;;;;12.88;7.05;;;;;;;13.46;100.00;101064.16;6163210;28;20053;-79
2024/03/14 09:38:28;;;;;;;10.98;6.65;;;;;;;13.40;100.00;101062.75;6163190;28;20081;-78
2024/03/14 09:41:30;;;;;;;14.73;7.10;;;;;;;13.37;100.00;101070.00;6162717;28;20514;-78
2024/03/14 09:44:33;;;;;;;10.93;6.28;;;;;;;13.35;100.00;101066.56;6138954;28;20051;-78
2024/03/14 09:47:35;;;;;;;14.45;5.65;;;;;;;13.40;100.00;101073.31;6139324;29;20471;-78
2024/03/14 09:50:38;;;;;;;16.15;6.05;;;;;;;13.47;100.00;101065.00;6152707;28;20043;-80
2024/03/14 09:53:39;;;;;;;13.30;5.30;;;;;;;13.54;100.00;101067.19;6163300;28;20051;-79
2024/03/14 09:56:41;;;;;;;12.00;5.57;;;;;;;13.67;100.00;101069.91;6162798;28;20062;-78
2024/03/14 09:59:43;;;;;;;10.50;5.65;;;;;;;13.68;100.00;101053.16;6162474;28;20359;-77
2024/03/14 10:02:44;;;;;;;11.85;6.32;;;;;;;13.75;100.00;101054.44;6162061;28;20133;-79
2024/03/14 10:05:46;;;;;;;11.50;4.75;;;;;;;13.91;100.00;101055.22;6162205;28;20335;-79
2024/03/14 10:08:48;;;;;;;9.60;5.15;;;;;;;14.07;100.00;101057.72;6162672;28;20047;-79
2024/03/14 10:11:50;;;;;;;12.00;5.50;;;;;;;14.16;100.00;101051.00;6162083;28;20058;-78
2024/03/14 10:14:58;;;;;;;9.88;5.50;;;;;;;14.15;100.00;101057.25;6162288;28;20078;-79
2024/03/14 10:18:00;;;;;;;9.40;5.05;;;;;;;14.14;100.00;101056.41;6153606;29;20055;-78
2024/03/14 10:21:05;;;;;;;8.75;5.22;;;;;;;14.22;100.00;101050.66;6138230;29;20129;-80
2024/03/14 10:24:09;;;;;;;8.00;4.30;;;;;;;14.23;100.00;101051.50;6153912;28;20460;-80
2024/03/14 10:27:10;;;;;;;8.50;4.88;;;;;;;14.15;100.00;101039.59;6154071;29;20436;-80
2024/03/14 10:30:12;;;;;;;10.25;3.95;;;;;;;14.28;100.00;101047.59;6153749;29;20047;-79
2024/03/14 10:33:14;;;;;;;7.70;4.30;;;;;;;14.15;100.00;101047.53;6154095;28;20054;-79
2024/03/14 10:36:15;;;;;;;8.85;4.85;;;;;;;14.17;100.00;101042.13;6153720;29;20051;-78
2024/03/14 10:39:17;;;;;;;7.82;4.50;;;;;;;14.30;100.00;101043.03;6153549;29;20055;-79
2024/03/14 10:42:18;;;;;;;11.02;4.40;;;;;;;14.40;100.00;101041.53;6153893;29;20055;-79
2024/03/14 10:45:21;;;;;;;8.60;4.30;;;;;;;14.59;100.00;101043.00;6153678;29;20344;-78
2024/03/14 10:48:26;;;;;;;7.65;3.70;;;;;;;14.63;100.00;101041.88;6153997;28;20352;-77
2024/03/14 10:51:27;;;;;;;7.28;3.80;;;;;;;14.56;100.00;101041.41;6153832;29;20043;-78
2024/03/14 10:54:29;;;;;;;5.65;4.03;;;;;;;14.37;100.00;101036.44;6167375;28;20464;-76
2024/03/14 10:57:33;;;;;;;9.27;3.83;;;;;;;14.20;100.00;101040.16;6177719;28;20055;-78
2024/03/14 11:00:35;;;;;;;6.95;3.75;;;;;;;14.21;100.00;101030.41;6177308;28;20051;-78
2024/03/14 11:03:38;;;;;;;6.32;3.85;;;;;;;14.32;100.00;101025.31;6177491;28;20050;-78
2024/03/14 11:06:40;;;;;;;6.35;4.03;;;;;;;14.54;100.00;101030.09;6177392;28;20050;-78
2024/03/14 11:09:41;;;;;;;7.15;4.30;;;;;;;14.63;100.00;101021.56;6176961;28;20058;-78
2024/03/14 11:12:45;;;;;;;8.00;4.05;;;;;;;14.68;100.00;101022.09;6161572;28;20444;-80
2024/03/14 11:15:46;;;;;;;7.80;3.88;;;;;;;14.75;100.00;101016.38;6176888;28;20189;-80
2024/03/14 11:18:52;;;;;;;11.35;4.47;;;;;;;14.91;100.00;101014.41;6160753;28;20051;-79
2024/03/14 11:21:54;;;;;;;11.98;5.07;;;;;;;15.06;100.00;101016.03;6161224;28;20059;-77
2024/03/14 11:24:56;;;;;;;7.45;4.15;;;;;;;15.15;100.00;101015.41;6161020;28;20125;-78
2024/03/14 11:27:58;;;;;;;5.75;3.80;;;;;;;15.30;100.00;101018.78;6161144;28;20137;-79
2024/03/14 11:31:01;;;;;;;10.50;3.97;;;;;;;15.30;100.00;101013.50;6160389;28;20065;-78
2024/03/14 11:34:03;;;;;;;8.05;4.70;;;;;;;15.29;100.00;101010.97;6158600;28;20713;-79
2024/03/14 11:37:05;;;;;;;7.88;4.22;;;;;;;15.39;100.00;101015.50;6160410;28;20058;-77
2024/03/14 11:40:14;;;;;;;9.07;4.20;;;;;;;15.60;100.00;101007.88;6159930;28;20359;-77
2024/03/14 11:43:17;;;;;;;6.28;3.60;;;;;;;15.73;100.00;101008.75;6160883;28;20058;-78
2024/03/14 11:46:20;;;;;;;7.68;4.40;;;;;;;15.82;100.00;101009.88;6160334;28;20145;-77
2024/03/14 11:49:23;;;;;;;4.43;3.20;;;;;;;15.90;100.00;101010.19;6159677;28;20046;-77
2024/03/14 11:52:24;;;;;;;5.95;3.10;;;;;;;16.02;100.00;100994.34;6160649;28;20059;-77
2024/03/14 11:55:29;;;;;;;6.65;3.22;;;;;;;16.22;100.00;100991.13;6176001;28;20050;-76
2024/03/14 11:58:30;;;;;;;10.10;4.47;;;;;;;16.44;100.00;100999.19;6161128;28;20062;-78
2024/03/14 12:01:32;;;;;;;8.10;3.55;;;;;;;16.59;100.00;100989.25;6159983;28;20047;-78
2024/03/14 12:04:36;;;;;;;6.53;3.70;;;;;;;16.77;100.00;100983.56;6160430;28;20090;-77
2024/03/14 12:07:37;;;;;;;7.15;4.38;;;;;;;16.81;100.00;100979.72;6160459;28;20463;-78
2024/03/14 12:10:39;;;;;;;6.53;3.60;;;;;;;17.12;100.00;100975.53;6160236;28;20058;-78
2024/03/14 12:13:47;;;;;;;8.80;4.45;;;;;;;17.12;100.00;100965.78;6160667;28;20058;-78
2024/03/14 12:16:49;;;;;;;5.47;3.60;;;;;;;17.21;100.00;100967.72;6160762;28;20047;-77
2024/03/14 12:19:54;;;;;;;6.43;3.70;;;;;;;16.98;100.00;100956.19;6159928;28;20050;-78
2024/03/14 12:22:56;;;;;;;7.50;4.40;;;;;;;16.79;99.70;100965.69;6160196;28;20046;-79
2024/03/14 12:26:01;;;;;;;6.55;3.22;;;;;;;16.44;100.00;100975.31;6160257;28;20051;-77
2024/03/14 12:29:05;;;;;;;7.47;3.92;;;;;;;16.47;100.00;100968.91;6160121;28;20050;-79
2024/03/14 12:32:06;;;;;;;7.57;4.07;;;;;;;16.78;100.00;100958.69;6159704;28;20471;-79
2024/03/14 12:35:09;;;;;;;6.18;4.00;;;;;;;16.77;100.00;100952.53;6159432;28;20057;-78
2024/03/14 12:38:12;;;;;;;5.80;4.20;;;;;;;16.83;100.00;100948.56;6160350;28;20090;-78
2024/03/14 12:41:13;;;;;;;5.68;3.85;;;;;;;17.05;100.00;100934.50;6159183;28;20352;-77
2024/03/14 12:44:18;;;;;;;8.65;4.35;;;;;;;17.45;100.00;100935.72;6160001;28;20083;-78
2024/03/14 12:47:20;;;;;;;6.43;3.95;;;;;;;17.28;95.00;100935.34;6164145;28;20058;-79
2024/03/14 12:50:22;;;;;;;9.75;4.47;;;;;;;16.95;95.81;100926.41;6164327;28;20105;-78
2024/03/14 12:53:24;;;;;;;5.85;4.07;;;;;;;16.85;98.93;100923.63;6164305;28;20049;-78
2024/03/14 12:56:25;;;;;;;9.80;4.25;;;;;;;17.23;100.00;100915.31;6164111;28;20050;-79
2024/03/14 12:59:28;;;;;;;5.85;3.95;;;;;;;17.66;100.00;100913.69;6163873;28;20451;-79
2024/03/14 13:02:30;;;;;;;8.18;4.30;;;;;;;17.90;91.30;100910.94;6164312;28;20055;-77
2024/03/14 13:05:32;;;;;;;6.65;4.30;;;;;;;18.09;91.78;100900.47;6163959;28;20054;-80
2024/03/14 13:08:34;;;;;;;8.25;4.15;;;;;;;18.30;87.58;100899.63;6164256;28;20467;-78
2024/03/14 13:11:35;;;;;;;6.45;4.05;;;;;;;18.42;82.70;100890.63;6163764;28;20047;-78
2024/03/14 13:14:37;;;;;;;5.65;3.50;;;;;;;18.65;82.86;100891.34;6163571;28;20428;-78
2024/03/14 13:17:38;;;;;;;6.13;3.47;;;;;;;18.74;84.59;100887.94;6163971;28;20062;-78
2024/03/14 13:20:41;;;;;;;6.63;3.78;;;;;;;18.94;79.97;100878.22;6163312;28;20057;-78
2024/03/14 13:23:45;;;;;;;7.82;3.65;;;;;;;18.95;79.86;100878.13;6163172;28;20055;-79
2024/03/14 13:26:53;;;;;;;7.20;3.92;;;;;;;19.15;82.40;100883.53;6163390;28;20359;-79
2024/03/14 13:29:54;;;;;;;6.75;3.67;;;;;;;19.10;77.40;100872.44;6163827;28;20120;-78
2024/03/14 13:32:59;;;;;;;5.78;3.40;;;;;;;19.01;74.46;100882.91;6163334;28;20058;-79
2024/03/14 13:36:03;;;;;;;6.15;4.03;;;;;;;19.29;74.18;100879.66;6163563;28;20113;-79
2024/03/14 13:39:07;;;;;;;8.93;4.10;;;;;;;19.12;78.42;100879.31;6163555;28;20050;-80
2024/03/14 13:42:08;;;;;;;7.53;4.30;;;;;;;19.20;76.50;100879.47;6163467;28;20518;-80
2024/03/14 13:45:16;;;;;;;6.68;4.13;;;;;;;19.46;74.93;100874.50;6159351;28;20050;-78
2024/03/14 13:48:18;;;;;;;6.40;4.18;;;;;;;19.70;79.50;100870.66;6163626;28;20046;-79